sensor_id;sensor_type;location;lat;lon;timestamp;temperature;humidity
8715;DHT22;4394;51.208;8.904;2023-03-04T00:01:07;2.90;99.90
8715;DHT22;4394;51.208;8.904;2023-03-04T00:03:55;3.00;99.90
8715;DHT22;4394;51.208;8.904;2023-03-04T00:06:43;3.00;99.90
8715;DHT22;4394;51.208;8.904;2023-03-04T00:09:31;3.10;99.90
8715;DHT22;4394;51.208;8.904;2023-03-04T00:12:19;3.10;99.90
8715;DHT22;4394;51.208;8.904;2023-03-04T00:15:08;3.20;99.90
8715;DHT22;4394;51.208;8.904;2023-03-04T00:17:57;3.10;99.90
8715;DHT22;4394;51.208;8.904;2023-03-04T00:20:45;2.90;99.90
8715;DHT22;4394;51.208;8.904;2023-03-04T00:23:33;3.20;99.90
8715;DHT22;4394;51.208;8.904;2023-03-04T00:26:21;3.20;99.90
8715;DHT22;4394;51.208;8.904;2023-03-04T00:29:09;3.20;99.90
8715;DHT22;4394;51.208;8.904;2023-03-04T00:31:57;3.20;99.90
8715;DHT22;4394;51.208;8.904;2023-03-04T00:34:46;3.10;99.90
8715;DHT22;4394;51.208;8.904;2023-03-04T00:37:34;3.30;99.90
8715;DHT22;4394;51.208;8.904;2023-03-04T00:40:22;3.20;99.90
8715;DHT22;4394;51.208;8.904;2023-03-04T00:43:10;3.20;99.90
8715;DHT22;4394;51.208;8.904;2023-03-04T00:45:58;3.20;99.90
8715;DHT22;4394;51.208;8.904;2023-03-04T00:48:46;3.20;99.90
8715;DHT22;4394;51.208;8.904;2023-03-04T00:51:35;3.20;99.90
8715;DHT22;4394;51.208;8.904;2023-03-04T00:54:23;3.20;99.90
8715;DHT22;4394;51.208;8.904;2023-03-04T00:57:11;3.20;99.90
8715;DHT22;4394;51.208;8.904;2023-03-04T00:59:59;3.20;99.90
8715;DHT22;4394;51.208;8.904;2023-03-04T01:02:47;3.30;99.90
8715;DHT22;4394;51.208;8.904;2023-03-04T01:05:35;3.30;99.90
8715;DHT22;4394;51.208;8.904;2023-03-04T01:08:24;3.20;99.90
8715;DHT22;4394;51.208;8.904;2023-03-04T01:11:12;3.20;99.90
8715;DHT22;4394;51.208;8.904;2023-03-04T01:14:00;3.20;99.90
8715;DHT22;4394;51.208;8.904;2023-03-04T01:16:48;3.20;99.90
8715;DHT22;4394;51.208;8.904;2023-03-04T01:19:36;3.20;99.90
8715;DHT22;4394;51.208;8.904;2023-03-04T01:22:24;3.20;99.90
8715;DHT22;4394;51.208;8.904;2023-03-04T01:25:13;3.10;99.90
8715;DHT22;4394;51.208;8.904;2023-03-04T01:28:02;3.10;99.90
8715;DHT22;4394;51.208;8.904;2023-03-04T01:30:50;3.10;99.90
8715;DHT22;4394;51.208;8.904;2023-03-04T01:33:38;3.10;99.90
8715;DHT22;4394;51.208;8.904;2023-03-04T01:36:25;3.10;99.90
8715;DHT22;4394;51.208;8.904;2023-03-04T01:39:13;3.10;99.90
8715;DHT22;4394;51.208;8.904;2023-03-04T01:42:03;3.30;99.90
8715;DHT22;4394;51.208;8.904;2023-03-04T01:44:51;3.10;99.90
8715;DHT22;4394;51.208;8.904;2023-03-04T01:47:39;3.10;99.90
8715;DHT22;4394;51.208;8.904;2023-03-04T01:50:31;3.20;99.90
8715;DHT22;4394;51.208;8.904;2023-03-04T01:53:22;2.90;99.90
8715;DHT22;4394;51.208;8.904;2023-03-04T01:56:14;2.90;99.90
8715;DHT22;4394;51.208;8.904;2023-03-04T01:59:12;2.90;99.90
8715;DHT22;4394;51.208;8.904;2023-03-04T02:02:00;2.80;99.90
8715;DHT22;4394;51.208;8.904;2023-03-04T02:04:48;2.80;99.90
8715;DHT22;4394;51.208;8.904;2023-03-04T02:07:36;2.80;99.90
8715;DHT22;4394;51.208;8.904;2023-03-04T02:10:25;2.80;99.90
8715;DHT22;4394;51.208;8.904;2023-03-04T02:13:14;2.80;99.90
8715;DHT22;4394;51.208;8.904;2023-03-04T02:16:03;2.80;99.90
8715;DHT22;4394;51.208;8.904;2023-03-04T02:18:51;2.80;99.90
8715;DHT22;4394;51.208;8.904;2023-03-04T02:21:39;2.90;99.90
8715;DHT22;4394;51.208;8.904;2023-03-04T02:24:31;2.90;99.90
8715;DHT22;4394;51.208;8.904;2023-03-04T02:27:21;2.90;99.90
8715;DHT22;4394;51.208;8.904;2023-03-04T02:30:18;2.90;99.90
8715;DHT22;4394;51.208;8.904;2023-03-04T02:33:09;2.90;99.90
8715;DHT22;4394;51.208;8.904;2023-03-04T02:35:57;2.90;99.90
8715;DHT22;4394;51.208;8.904;2023-03-04T02:38:44;2.90;99.90
8715;DHT22;4394;51.208;8.904;2023-03-04T02:41:33;2.90;99.90
8715;DHT22;4394;51.208;8.904;2023-03-04T02:44:24;2.90;99.90
8715;DHT22;4394;51.208;8.904;2023-03-04T02:47:14;2.90;99.90
8715;DHT22;4394;51.208;8.904;2023-03-04T02:50:04;2.80;99.90
8715;DHT22;4394;51.208;8.904;2023-03-04T02:52:52;2.80;99.90
8715;DHT22;4394;51.208;8.904;2023-03-04T02:55:40;2.80;99.90
8715;DHT22;4394;51.208;8.904;2023-03-04T02:58:28;2.90;99.90
8715;DHT22;4394;51.208;8.904;2023-03-04T03:01:17;2.90;99.90
8715;DHT22;4394;51.208;8.904;2023-03-04T03:04:05;2.90;99.90
8715;DHT22;4394;51.208;8.904;2023-03-04T03:06:53;2.90;99.90
8715;DHT22;4394;51.208;8.904;2023-03-04T03:09:40;3.00;99.90
8715;DHT22;4394;51.208;8.904;2023-03-04T03:12:28;3.00;99.90
8715;DHT22;4394;51.208;8.904;2023-03-04T03:15:16;3.00;99.90
8715;DHT22;4394;51.208;8.904;2023-03-04T03:18:06;3.00;99.90
8715;DHT22;4394;51.208;8.904;2023-03-04T03:20:54;3.10;99.90
8715;DHT22;4394;51.208;8.904;2023-03-04T03:23:42;3.20;99.90
8715;DHT22;4394;51.208;8.904;2023-03-04T03:26:30;3.10;99.90
8715;DHT22;4394;51.208;8.904;2023-03-04T03:29:17;3.00;99.90
8715;DHT22;4394;51.208;8.904;2023-03-04T03:32:05;3.00;99.90
8715;DHT22;4394;51.208;8.904;2023-03-04T03:34:55;3.10;99.90
8715;DHT22;4394;51.208;8.904;2023-03-04T03:37:42;3.10;99.90
8715;DHT22;4394;51.208;8.904;2023-03-04T03:40:30;3.10;99.90
8715;DHT22;4394;51.208;8.904;2023-03-04T03:43:18;3.00;99.90
8715;DHT22;4394;51.208;8.904;2023-03-04T03:46:06;3.00;99.90
8715;DHT22;4394;51.208;8.904;2023-03-04T03:48:54;3.00;99.90
8715;DHT22;4394;51.208;8.904;2023-03-04T03:51:43;3.00;99.90
8715;DHT22;4394;51.208;8.904;2023-03-04T03:54:31;3.00;99.90
8715;DHT22;4394;51.208;8.904;2023-03-04T03:57:19;3.00;99.90
8715;DHT22;4394;51.208;8.904;2023-03-04T04:00:08;3.00;99.90
8715;DHT22;4394;51.208;8.904;2023-03-04T04:02:57;3.00;99.90
8715;DHT22;4394;51.208;8.904;2023-03-04T04:05:46;2.90;99.90
8715;DHT22;4394;51.208;8.904;2023-03-04T04:08:35;2.90;99.90
8715;DHT22;4394;51.208;8.904;2023-03-04T04:11:23;2.90;99.90
8715;DHT22;4394;51.208;8.904;2023-03-04T04:14:12;2.90;99.90
8715;DHT22;4394;51.208;8.904;2023-03-04T04:17:00;2.90;99.90
8715;DHT22;4394;51.208;8.904;2023-03-04T04:19:48;2.90;99.90
8715;DHT22;4394;51.208;8.904;2023-03-04T04:22:36;3.00;99.90
8715;DHT22;4394;51.208;8.904;2023-03-04T04:25:25;3.00;99.90
8715;DHT22;4394;51.208;8.904;2023-03-04T04:28:13;3.00;99.90
8715;DHT22;4394;51.208;8.904;2023-03-04T04:31:01;3.00;99.90
8715;DHT22;4394;51.208;8.904;2023-03-04T04:33:49;3.00;99.90
8715;DHT22;4394;51.208;8.904;2023-03-04T04:36:37;3.00;99.90
8715;DHT22;4394;51.208;8.904;2023-03-04T04:39:25;3.00;99.90
8715;DHT22;4394;51.208;8.904;2023-03-04T04:42:14;3.10;99.90
8715;DHT22;4394;51.208;8.904;2023-03-04T04:45:02;3.00;99.90
8715;DHT22;4394;51.208;8.904;2023-03-04T04:47:51;3.10;99.90
8715;DHT22;4394;51.208;8.904;2023-03-04T04:50:38;3.00;99.90
8715;DHT22;4394;51.208;8.904;2023-03-04T04:53:26;3.10;99.90
8715;DHT22;4394;51.208;8.904;2023-03-04T04:56:17;3.10;99.90
8715;DHT22;4394;51.208;8.904;2023-03-04T04:59:06;3.10;99.90
8715;DHT22;4394;51.208;8.904;2023-03-04T05:01:55;3.00;99.90
8715;DHT22;4394;51.208;8.904;2023-03-04T05:04:42;3.10;99.90
8715;DHT22;4394;51.208;8.904;2023-03-04T05:07:30;3.00;99.90
8715;DHT22;4394;51.208;8.904;2023-03-04T05:10:18;3.00;99.90
8715;DHT22;4394;51.208;8.904;2023-03-04T05:13:06;3.00;99.90
8715;DHT22;4394;51.208;8.904;2023-03-04T05:15:56;3.00;99.90
8715;DHT22;4394;51.208;8.904;2023-03-04T05:18:44;3.00;99.90
8715;DHT22;4394;51.208;8.904;2023-03-04T05:21:32;3.00;99.90
8715;DHT22;4394;51.208;8.904;2023-03-04T05:24:20;3.00;99.90
8715;DHT22;4394;51.208;8.904;2023-03-04T05:27:08;3.10;99.90
8715;DHT22;4394;51.208;8.904;2023-03-04T05:29:56;3.10;99.90
8715;DHT22;4394;51.208;8.904;2023-03-04T05:32:47;3.10;99.90
8715;DHT22;4394;51.208;8.904;2023-03-04T05:35:36;3.10;99.90
8715;DHT22;4394;51.208;8.904;2023-03-04T05:38:24;3.10;99.90
8715;DHT22;4394;51.208;8.904;2023-03-04T05:41:12;3.10;99.90
8715;DHT22;4394;51.208;8.904;2023-03-04T05:44:00;3.00;99.90
8715;DHT22;4394;51.208;8.904;2023-03-04T05:46:48;3.10;99.90
8715;DHT22;4394;51.208;8.904;2023-03-04T05:49:37;3.10;99.90
8715;DHT22;4394;51.208;8.904;2023-03-04T05:52:26;3.10;99.90
8715;DHT22;4394;51.208;8.904;2023-03-04T05:55:15;3.10;99.90
8715;DHT22;4394;51.208;8.904;2023-03-04T05:58:03;3.10;99.90
8715;DHT22;4394;51.208;8.904;2023-03-04T06:00:51;3.10;99.90
8715;DHT22;4394;51.208;8.904;2023-03-04T06:03:39;3.10;99.90
8715;DHT22;4394;51.208;8.904;2023-03-04T06:06:30;3.20;99.90
8715;DHT22;4394;51.208;8.904;2023-03-04T06:09:18;3.00;99.90
8715;DHT22;4394;51.208;8.904;2023-03-04T06:12:06;3.00;99.90
8715;DHT22;4394;51.208;8.904;2023-03-04T06:14:54;3.10;99.90
8715;DHT22;4394;51.208;8.904;2023-03-04T06:17:43;3.10;99.90
8715;DHT22;4394;51.208;8.904;2023-03-04T06:20:30;3.10;99.90
8715;DHT22;4394;51.208;8.904;2023-03-04T06:23:20;3.00;99.90
8715;DHT22;4394;51.208;8.904;2023-03-04T06:26:07;3.10;99.90
8715;DHT22;4394;51.208;8.904;2023-03-04T06:28:57;3.20;99.90
8715;DHT22;4394;51.208;8.904;2023-03-04T06:31:45;3.10;99.90
8715;DHT22;4394;51.208;8.904;2023-03-04T06:34:33;3.10;99.90
8715;DHT22;4394;51.208;8.904;2023-03-04T06:37:21;3.20;99.90
8715;DHT22;4394;51.208;8.904;2023-03-04T06:40:11;3.20;99.90
8715;DHT22;4394;51.208;8.904;2023-03-04T06:42:59;3.20;99.90
8715;DHT22;4394;51.208;8.904;2023-03-04T06:45:48;3.20;99.90
8715;DHT22;4394;51.208;8.904;2023-03-04T06:48:36;3.20;99.90
8715;DHT22;4394;51.208;8.904;2023-03-04T06:51:24;3.20;99.90
8715;DHT22;4394;51.208;8.904;2023-03-04T06:54:12;3.10;99.90
8715;DHT22;4394;51.208;8.904;2023-03-04T06:57:01;3.10;99.90
8715;DHT22;4394;51.208;8.904;2023-03-04T06:59:49;3.10;99.90
8715;DHT22;4394;51.208;8.904;2023-03-04T07:02:36;3.20;99.90
8715;DHT22;4394;51.208;8.904;2023-03-04T07:05:25;3.20;99.90
8715;DHT22;4394;51.208;8.904;2023-03-04T07:08:13;3.30;99.90
8715;DHT22;4394;51.208;8.904;2023-03-04T07:11:01;3.30;99.90
8715;DHT22;4394;51.208;8.904;2023-03-04T07:13:51;3.30;99.90
8715;DHT22;4394;51.208;8.904;2023-03-04T07:16:39;3.30;99.90
8715;DHT22;4394;51.208;8.904;2023-03-04T07:19:27;3.50;99.90
8715;DHT22;4394;51.208;8.904;2023-03-04T07:22:15;3.40;99.90
8715;DHT22;4394;51.208;8.904;2023-03-04T07:25:04;3.40;99.90
8715;DHT22;4394;51.208;8.904;2023-03-04T07:27:52;3.50;99.90
8715;DHT22;4394;51.208;8.904;2023-03-04T07:30:41;3.50;99.90
8715;DHT22;4394;51.208;8.904;2023-03-04T07:33:29;3.50;99.90
8715;DHT22;4394;51.208;8.904;2023-03-04T07:36:17;3.60;99.90
8715;DHT22;4394;51.208;8.904;2023-03-04T07:39:06;3.50;99.90
8715;DHT22;4394;51.208;8.904;2023-03-04T07:41:54;3.60;99.90
8715;DHT22;4394;51.208;8.904;2023-03-04T07:44:42;3.40;99.90
8715;DHT22;4394;51.208;8.904;2023-03-04T07:47:31;3.40;99.90
8715;DHT22;4394;51.208;8.904;2023-03-04T07:50:19;3.40;99.90
8715;DHT22;4394;51.208;8.904;2023-03-04T07:53:08;3.60;99.90
8715;DHT22;4394;51.208;8.904;2023-03-04T07:55:56;3.50;99.90
8715;DHT22;4394;51.208;8.904;2023-03-04T07:58:43;3.50;99.90
8715;DHT22;4394;51.208;8.904;2023-03-04T08:01:33;3.50;99.90
8715;DHT22;4394;51.208;8.904;2023-03-04T08:04:22;3.50;99.90
8715;DHT22;4394;51.208;8.904;2023-03-04T08:07:10;3.60;99.90
8715;DHT22;4394;51.208;8.904;2023-03-04T08:09:58;3.60;99.90
8715;DHT22;4394;51.208;8.904;2023-03-04T08:12:46;3.60;99.90
8715;DHT22;4394;51.208;8.904;2023-03-04T08:15:40;3.60;99.90
8715;DHT22;4394;51.208;8.904;2023-03-04T08:18:28;3.60;99.90
8715;DHT22;4394;51.208;8.904;2023-03-04T08:21:18;3.70;99.90
8715;DHT22;4394;51.208;8.904;2023-03-04T08:24:09;3.80;99.90
8715;DHT22;4394;51.208;8.904;2023-03-04T08:26:57;3.80;99.90
8715;DHT22;4394;51.208;8.904;2023-03-04T08:29:45;3.80;99.90
8715;DHT22;4394;51.208;8.904;2023-03-04T08:32:33;3.80;99.90
8715;DHT22;4394;51.208;8.904;2023-03-04T08:35:21;3.90;99.90
8715;DHT22;4394;51.208;8.904;2023-03-04T08:38:11;3.90;99.90
8715;DHT22;4394;51.208;8.904;2023-03-04T08:40:58;3.90;99.90
8715;DHT22;4394;51.208;8.904;2023-03-04T08:43:46;4.00;99.90
8715;DHT22;4394;51.208;8.904;2023-03-04T08:46:35;4.10;99.90
8715;DHT22;4394;51.208;8.904;2023-03-04T08:49:23;4.20;99.90
8715;DHT22;4394;51.208;8.904;2023-03-04T08:52:10;4.40;99.90
8715;DHT22;4394;51.208;8.904;2023-03-04T08:55:00;4.50;99.90
8715;DHT22;4394;51.208;8.904;2023-03-04T08:57:48;4.50;99.90
8715;DHT22;4394;51.208;8.904;2023-03-04T09:00:37;4.60;99.90
8715;DHT22;4394;51.208;8.904;2023-03-04T09:03:27;4.60;99.90
8715;DHT22;4394;51.208;8.904;2023-03-04T09:06:16;4.60;99.90
8715;DHT22;4394;51.208;8.904;2023-03-04T09:09:04;4.60;99.90
8715;DHT22;4394;51.208;8.904;2023-03-04T09:11:53;4.70;99.90
8715;DHT22;4394;51.208;8.904;2023-03-04T09:14:41;4.80;99.90
8715;DHT22;4394;51.208;8.904;2023-03-04T09:17:29;4.90;99.90
8715;DHT22;4394;51.208;8.904;2023-03-04T09:20:17;4.90;99.90
8715;DHT22;4394;51.208;8.904;2023-03-04T09:23:06;4.70;99.90
8715;DHT22;4394;51.208;8.904;2023-03-04T09:25:55;4.60;99.90
8715;DHT22;4394;51.208;8.904;2023-03-04T09:28:45;4.70;99.90
8715;DHT22;4394;51.208;8.904;2023-03-04T09:31:35;4.70;99.90
8715;DHT22;4394;51.208;8.904;2023-03-04T09:34:23;4.80;99.90
8715;DHT22;4394;51.208;8.904;2023-03-04T09:37:11;4.90;99.90
8715;DHT22;4394;51.208;8.904;2023-03-04T09:39:59;5.00;99.90
8715;DHT22;4394;51.208;8.904;2023-03-04T09:42:49;5.10;99.90
8715;DHT22;4394;51.208;8.904;2023-03-04T09:45:42;5.10;99.90
8715;DHT22;4394;51.208;8.904;2023-03-04T09:48:39;5.20;99.90
8715;DHT22;4394;51.208;8.904;2023-03-04T09:51:43;5.20;99.90
8715;DHT22;4394;51.208;8.904;2023-03-04T09:54:55;5.20;99.90
8715;DHT22;4394;51.208;8.904;2023-03-04T09:57:49;5.30;99.90
8715;DHT22;4394;51.208;8.904;2023-03-04T10:00:41;5.30;99.90
8715;DHT22;4394;51.208;8.904;2023-03-04T10:03:40;5.30;99.90
8715;DHT22;4394;51.208;8.904;2023-03-04T10:06:30;5.30;99.90
8715;DHT22;4394;51.208;8.904;2023-03-04T10:09:21;5.30;99.90
8715;DHT22;4394;51.208;8.904;2023-03-04T10:12:12;5.20;99.90
8715;DHT22;4394;51.208;8.904;2023-03-04T10:15:04;5.30;99.90
8715;DHT22;4394;51.208;8.904;2023-03-04T10:18:00;5.40;99.90
8715;DHT22;4394;51.208;8.904;2023-03-04T10:20:53;5.50;99.90
8715;DHT22;4394;51.208;8.904;2023-03-04T10:23:43;5.60;99.90
8715;DHT22;4394;51.208;8.904;2023-03-04T10:26:32;5.60;99.90
8715;DHT22;4394;51.208;8.904;2023-03-04T10:29:22;5.50;99.90
8715;DHT22;4394;51.208;8.904;2023-03-04T10:32:13;5.50;99.90
8715;DHT22;4394;51.208;8.904;2023-03-04T10:35:05;5.50;99.90
8715;DHT22;4394;51.208;8.904;2023-03-04T10:37:53;5.60;99.90
8715;DHT22;4394;51.208;8.904;2023-03-04T10:40:41;5.60;99.90
8715;DHT22;4394;51.208;8.904;2023-03-04T10:43:31;5.70;99.90
8715;DHT22;4394;51.208;8.904;2023-03-04T10:46:20;5.80;99.90
8715;DHT22;4394;51.208;8.904;2023-03-04T10:49:12;5.80;99.90
8715;DHT22;4394;51.208;8.904;2023-03-04T10:52:12;5.80;99.90
8715;DHT22;4394;51.208;8.904;2023-03-04T10:55:04;5.90;99.90
8715;DHT22;4394;51.208;8.904;2023-03-04T10:57:54;5.90;99.90
8715;DHT22;4394;51.208;8.904;2023-03-04T11:00:43;5.90;99.90
8715;DHT22;4394;51.208;8.904;2023-03-04T11:03:37;5.80;99.90
8715;DHT22;4394;51.208;8.904;2023-03-04T11:06:25;5.90;99.90
8715;DHT22;4394;51.208;8.904;2023-03-04T11:09:22;5.80;99.90
8715;DHT22;4394;51.208;8.904;2023-03-04T11:12:12;5.60;99.90
8715;DHT22;4394;51.208;8.904;2023-03-04T11:15:01;5.70;99.90
8715;DHT22;4394;51.208;8.904;2023-03-04T11:17:52;5.60;99.90
8715;DHT22;4394;51.208;8.904;2023-03-04T11:20:42;5.70;99.90
8715;DHT22;4394;51.208;8.904;2023-03-04T11:23:35;5.70;99.90
8715;DHT22;4394;51.208;8.904;2023-03-04T11:26:30;5.80;99.90
8715;DHT22;4394;51.208;8.904;2023-03-04T11:29:23;5.90;99.90
8715;DHT22;4394;51.208;8.904;2023-03-04T11:32:14;6.10;99.90
8715;DHT22;4394;51.208;8.904;2023-03-04T11:35:07;5.90;99.90
8715;DHT22;4394;51.208;8.904;2023-03-04T11:38:07;5.90;99.90
8715;DHT22;4394;51.208;8.904;2023-03-04T11:40:58;5.90;99.90
8715;DHT22;4394;51.208;8.904;2023-03-04T11:43:49;5.90;99.90
8715;DHT22;4394;51.208;8.904;2023-03-04T11:46:55;5.90;99.90
8715;DHT22;4394;51.208;8.904;2023-03-04T11:50:04;5.90;99.90
8715;DHT22;4394;51.208;8.904;2023-03-04T11:53:28;5.90;99.90
8715;DHT22;4394;51.208;8.904;2023-03-04T11:56:30;5.90;99.90
8715;DHT22;4394;51.208;8.904;2023-03-04T11:59:33;5.80;99.90
8715;DHT22;4394;51.208;8.904;2023-03-04T12:02:28;5.80;99.90
8715;DHT22;4394;51.208;8.904;2023-03-04T12:05:25;5.80;99.90
8715;DHT22;4394;51.208;8.904;2023-03-04T12:08:28;5.80;99.90
8715;DHT22;4394;51.208;8.904;2023-03-04T12:11:29;5.90;99.90
8715;DHT22;4394;51.208;8.904;2023-03-04T12:14:29;5.80;99.90
8715;DHT22;4394;51.208;8.904;2023-03-04T12:17:33;5.60;99.90
8715;DHT22;4394;51.208;8.904;2023-03-04T12:20:43;5.60;99.90
8715;DHT22;4394;51.208;8.904;2023-03-04T12:23:49;5.60;99.90
8715;DHT22;4394;51.208;8.904;2023-03-04T12:26:44;5.50;99.90
8715;DHT22;4394;51.208;8.904;2023-03-04T12:29:43;5.60;99.90
8715;DHT22;4394;51.208;8.904;2023-03-04T12:32:38;5.60;99.90
8715;DHT22;4394;51.208;8.904;2023-03-04T12:35:36;5.60;99.90
8715;DHT22;4394;51.208;8.904;2023-03-04T12:38:34;5.60;99.90
8715;DHT22;4394;51.208;8.904;2023-03-04T12:41:31;5.60;99.90
8715;DHT22;4394;51.208;8.904;2023-03-04T12:44:21;5.60;99.90
8715;DHT22;4394;51.208;8.904;2023-03-04T12:47:18;5.60;99.90
8715;DHT22;4394;51.208;8.904;2023-03-04T12:50:27;5.60;99.90
8715;DHT22;4394;51.208;8.904;2023-03-04T12:53:23;5.60;99.90
8715;DHT22;4394;51.208;8.904;2023-03-04T12:56:22;5.50;99.90
8715;DHT22;4394;51.208;8.904;2023-03-04T12:59:14;5.40;99.90
8715;DHT22;4394;51.208;8.904;2023-03-04T13:02:24;5.40;99.90
8715;DHT22;4394;51.208;8.904;2023-03-04T13:05:23;5.50;99.90
8715;DHT22;4394;51.208;8.904;2023-03-04T13:08:23;5.50;99.90
8715;DHT22;4394;51.208;8.904;2023-03-04T13:11:41;5.60;99.90
8715;DHT22;4394;51.208;8.904;2023-03-04T13:14:32;5.60;99.90
8715;DHT22;4394;51.208;8.904;2023-03-04T13:17:42;5.60;99.90
8715;DHT22;4394;51.208;8.904;2023-03-04T13:20:36;5.70;99.90
8715;DHT22;4394;51.208;8.904;2023-03-04T13:23:27;5.60;99.90
8715;DHT22;4394;51.208;8.904;2023-03-04T13:26:23;5.70;99.90
8715;DHT22;4394;51.208;8.904;2023-03-04T13:29:32;5.70;99.90
8715;DHT22;4394;51.208;8.904;2023-03-04T13:32:35;5.70;99.90
8715;DHT22;4394;51.208;8.904;2023-03-04T13:35:47;5.70;99.90
8715;DHT22;4394;51.208;8.904;2023-03-04T13:38:37;5.80;99.90
8715;DHT22;4394;51.208;8.904;2023-03-04T13:41:29;5.80;99.90
8715;DHT22;4394;51.208;8.904;2023-03-04T13:47:47;5.90;99.90
8715;DHT22;4394;51.208;8.904;2023-03-04T13:50:41;5.90;99.90
8715;DHT22;4394;51.208;8.904;2023-03-04T13:53:43;5.90;99.90
8715;DHT22;4394;51.208;8.904;2023-03-04T13:56:32;5.70;99.90
8715;DHT22;4394;51.208;8.904;2023-03-04T13:59:28;5.60;99.90
8715;DHT22;4394;51.208;8.904;2023-03-04T14:02:18;5.60;99.90
8715;DHT22;4394;51.208;8.904;2023-03-04T14:05:10;5.60;99.90
8715;DHT22;4394;51.208;8.904;2023-03-04T14:08:17;5.50;99.90
8715;DHT22;4394;51.208;8.904;2023-03-04T14:11:11;5.50;99.90
8715;DHT22;4394;51.208;8.904;2023-03-04T14:14:03;5.40;99.90
8715;DHT22;4394;51.208;8.904;2023-03-04T14:16:53;5.40;99.90
8715;DHT22;4394;51.208;8.904;2023-03-04T14:19:43;5.50;99.90
8715;DHT22;4394;51.208;8.904;2023-03-04T14:22:37;5.50;99.90
8715;DHT22;4394;51.208;8.904;2023-03-04T14:25:26;5.50;99.90
8715;DHT22;4394;51.208;8.904;2023-03-04T14:28:17;5.60;99.90
8715;DHT22;4394;51.208;8.904;2023-03-04T14:31:05;5.60;99.90
8715;DHT22;4394;51.208;8.904;2023-03-04T14:33:59;5.60;99.90
8715;DHT22;4394;51.208;8.904;2023-03-04T14:36:48;5.70;99.90
8715;DHT22;4394;51.208;8.904;2023-03-04T14:39:36;5.70;99.90
8715;DHT22;4394;51.208;8.904;2023-03-04T14:42:31;5.70;99.90
8715;DHT22;4394;51.208;8.904;2023-03-04T14:45:24;5.70;99.90
8715;DHT22;4394;51.208;8.904;2023-03-04T14:48:17;5.70;99.90
8715;DHT22;4394;51.208;8.904;2023-03-04T14:51:33;5.70;99.90
8715;DHT22;4394;51.208;8.904;2023-03-04T14:54:33;5.70;99.90
8715;DHT22;4394;51.208;8.904;2023-03-04T14:57:23;5.60;99.90
8715;DHT22;4394;51.208;8.904;2023-03-04T15:00:24;5.50;99.90
8715;DHT22;4394;51.208;8.904;2023-03-04T15:03:19;5.50;99.90
8715;DHT22;4394;51.208;8.904;2023-03-04T15:06:16;5.50;99.90
8715;DHT22;4394;51.208;8.904;2023-03-04T15:09:06;5.60;99.90
8715;DHT22;4394;51.208;8.904;2023-03-04T15:12:00;5.50;99.90
8715;DHT22;4394;51.208;8.904;2023-03-04T15:14:51;5.50;99.90
8715;DHT22;4394;51.208;8.904;2023-03-04T15:17:40;5.50;99.90
8715;DHT22;4394;51.208;8.904;2023-03-04T15:20:31;5.60;99.90
8715;DHT22;4394;51.208;8.904;2023-03-04T15:23:19;5.60;99.90
8715;DHT22;4394;51.208;8.904;2023-03-04T15:26:08;5.60;99.90
8715;DHT22;4394;51.208;8.904;2023-03-04T15:28:57;5.60;99.90
8715;DHT22;4394;51.208;8.904;2023-03-04T15:31:45;5.60;99.90
8715;DHT22;4394;51.208;8.904;2023-03-04T15:34:36;5.60;99.90
8715;DHT22;4394;51.208;8.904;2023-03-04T15:37:26;5.60;99.90
8715;DHT22;4394;51.208;8.904;2023-03-04T15:40:19;5.60;99.90
8715;DHT22;4394;51.208;8.904;2023-03-04T15:43:10;5.50;99.90
8715;DHT22;4394;51.208;8.904;2023-03-04T15:46:00;5.40;99.90
8715;DHT22;4394;51.208;8.904;2023-03-04T15:48:48;5.30;99.90
8715;DHT22;4394;51.208;8.904;2023-03-04T15:51:37;5.30;99.90
8715;DHT22;4394;51.208;8.904;2023-03-04T15:54:27;5.30;99.90
8715;DHT22;4394;51.208;8.904;2023-03-04T15:57:19;5.30;99.90
8715;DHT22;4394;51.208;8.904;2023-03-04T16:00:10;5.30;99.90
8715;DHT22;4394;51.208;8.904;2023-03-04T16:02:58;5.20;99.90
8715;DHT22;4394;51.208;8.904;2023-03-04T16:05:48;5.20;99.90
8715;DHT22;4394;51.208;8.904;2023-03-04T16:08:38;5.30;99.90
8715;DHT22;4394;51.208;8.904;2023-03-04T16:11:29;5.30;99.90
8715;DHT22;4394;51.208;8.904;2023-03-04T16:14:17;5.30;99.90
8715;DHT22;4394;51.208;8.904;2023-03-04T16:17:04;5.30;99.90
8715;DHT22;4394;51.208;8.904;2023-03-04T16:19:53;5.30;99.90
8715;DHT22;4394;51.208;8.904;2023-03-04T16:22:41;5.30;99.90
8715;DHT22;4394;51.208;8.904;2023-03-04T16:25:31;5.30;99.90
8715;DHT22;4394;51.208;8.904;2023-03-04T16:28:19;5.30;99.90
8715;DHT22;4394;51.208;8.904;2023-03-04T16:31:09;5.30;99.90
8715;DHT22;4394;51.208;8.904;2023-03-04T16:33:57;5.30;99.90
8715;DHT22;4394;51.208;8.904;2023-03-04T16:36:45;5.30;99.90
8715;DHT22;4394;51.208;8.904;2023-03-04T16:39:33;5.30;99.90
8715;DHT22;4394;51.208;8.904;2023-03-04T16:42:22;5.30;99.90
8715;DHT22;4394;51.208;8.904;2023-03-04T16:45:15;5.30;99.90
8715;DHT22;4394;51.208;8.904;2023-03-04T16:48:04;5.20;99.90
8715;DHT22;4394;51.208;8.904;2023-03-04T16:50:52;5.20;99.90
8715;DHT22;4394;51.208;8.904;2023-03-04T16:53:41;5.20;99.90
8715;DHT22;4394;51.208;8.904;2023-03-04T16:56:29;5.10;99.90
8715;DHT22;4394;51.208;8.904;2023-03-04T16:59:19;5.00;99.90
8715;DHT22;4394;51.208;8.904;2023-03-04T17:02:12;5.00;99.90
8715;DHT22;4394;51.208;8.904;2023-03-04T17:05:00;4.90;99.90
8715;DHT22;4394;51.208;8.904;2023-03-04T17:07:48;4.90;99.90
8715;DHT22;4394;51.208;8.904;2023-03-04T17:10:36;4.80;99.90
8715;DHT22;4394;51.208;8.904;2023-03-04T17:13:23;4.80;99.90
8715;DHT22;4394;51.208;8.904;2023-03-04T17:16:13;4.70;99.90
8715;DHT22;4394;51.208;8.904;2023-03-04T17:19:01;4.80;99.90
8715;DHT22;4394;51.208;8.904;2023-03-04T17:21:49;4.80;99.90
8715;DHT22;4394;51.208;8.904;2023-03-04T17:24:37;4.70;99.90
8715;DHT22;4394;51.208;8.904;2023-03-04T17:27:25;4.70;99.90
8715;DHT22;4394;51.208;8.904;2023-03-04T17:30:13;4.60;99.90
8715;DHT22;4394;51.208;8.904;2023-03-04T17:33:03;4.70;99.90
8715;DHT22;4394;51.208;8.904;2023-03-04T17:35:50;4.80;99.90
8715;DHT22;4394;51.208;8.904;2023-03-04T17:38:39;4.80;99.90
8715;DHT22;4394;51.208;8.904;2023-03-04T17:41:27;4.70;99.90
8715;DHT22;4394;51.208;8.904;2023-03-04T17:44:14;4.80;99.90
8715;DHT22;4394;51.208;8.904;2023-03-04T17:47:02;4.80;99.90
8715;DHT22;4394;51.208;8.904;2023-03-04T17:49:52;4.80;99.90
8715;DHT22;4394;51.208;8.904;2023-03-04T17:52:40;4.70;99.90
8715;DHT22;4394;51.208;8.904;2023-03-04T17:55:28;4.70;99.90
8715;DHT22;4394;51.208;8.904;2023-03-04T17:58:16;4.60;99.90
8715;DHT22;4394;51.208;8.904;2023-03-04T18:01:06;4.60;99.90
8715;DHT22;4394;51.208;8.904;2023-03-04T18:03:57;4.60;99.90
8715;DHT22;4394;51.208;8.904;2023-03-04T18:06:47;4.60;99.90
8715;DHT22;4394;51.208;8.904;2023-03-04T18:09:35;4.60;99.90
8715;DHT22;4394;51.208;8.904;2023-03-04T18:12:23;4.60;99.90
8715;DHT22;4394;51.208;8.904;2023-03-04T18:15:10;4.60;99.90
8715;DHT22;4394;51.208;8.904;2023-03-04T18:17:58;4.60;99.90
8715;DHT22;4394;51.208;8.904;2023-03-04T18:20:46;4.60;99.90
8715;DHT22;4394;51.208;8.904;2023-03-04T18:23:36;4.50;99.90
8715;DHT22;4394;51.208;8.904;2023-03-04T18:26:24;4.50;99.90
8715;DHT22;4394;51.208;8.904;2023-03-04T18:29:12;4.50;99.90
8715;DHT22;4394;51.208;8.904;2023-03-04T18:32:00;4.60;99.90
8715;DHT22;4394;51.208;8.904;2023-03-04T18:34:48;4.50;99.90
8715;DHT22;4394;51.208;8.904;2023-03-04T18:37:36;4.50;99.90
8715;DHT22;4394;51.208;8.904;2023-03-04T18:40:26;4.50;99.90
8715;DHT22;4394;51.208;8.904;2023-03-04T18:43:14;4.50;99.90
8715;DHT22;4394;51.208;8.904;2023-03-04T18:46:03;4.40;99.90
8715;DHT22;4394;51.208;8.904;2023-03-04T18:48:53;4.30;99.90
8715;DHT22;4394;51.208;8.904;2023-03-04T18:51:42;4.40;99.90
8715;DHT22;4394;51.208;8.904;2023-03-04T18:54:30;4.40;99.90